Fort Worth, TX

01:54 PM CDT on Οκτώβριος 25, 2014 (GMT -0500)
BRIT Living Roof | Change Station
CLOSE
Current Station
Personal Weather Stations
Location: Fort Worth, TX
Elevation: 594 ft
Nearby Weather Stations

Elev 594 ft 32.74 °N, 97.36 °W | Updated 4 minutes ago

Αίθριος
Αίθριος
87.0 ° F
Feels Like 88 ° F
N
2.0
Ανεμος Μεταβλητός Ανεμος from ΝΑ
Gusts 2.0 mph

Σήμερα
High -- | Low -- ° F
--% Chance of Precip.
Yesterday
High -- | Low -- ° F
Precip. -- in
7:41 AM 6:45 PM
Μηνίσκος, 4% visible
Ατμοσφαιρική Πίεση 30.09 in
Ορατότητα 10.0 Μίλια
Σύννεφα Αίθριος
Δείκτης Δυσφορίας 88 ° F
Σημείο Δρόσου 64 ° F
Υγρασία 46%
Rainfall 0.00 in
Snow Depth Not available.
Υπεριώδης ακτινοβολία (UV) 4.5 out of 12
Pollen 5.20 out of 12
Όζον Καλή
PM2.5 Μέτρια
Flu Activity Local Activity
METAR KFTW 251753Z 20011KT 10SM CLR 29/16 A3011 RMK AO2 SLP189 T02940161 10300 20178 58010

More Conditions Fewer Conditions

Ατμοσφαιρική Πίεση 30.09 in
Ορατότητα 10.0 Μίλια
Σύννεφα Αίθριος
Δείκτης Δυσφορίας 88 ° F
Σημείο Δρόσου 64 ° F
Υγρασία 46%
Rainfall 0.00 in
Snow Depth Not available.
Υπεριώδης ακτινοβολία (UV) 4.5 out of 12
Pollen 5.20 out of 12
Όζον Καλή
PM2.5 Μέτρια
Flu Activity Local Activity
METAR KFTW 251753Z 20011KT 10SM CLR 29/16 A3011 RMK AO2 SLP189 T02940161 10300 20178 58010

More Conditions Fewer Conditions

10-Day Weather Forecast

Almanac

Αστρονομία

Oct. 25, 2014 Rise Set
Actual Time 7:41 AM CDT 6:45 PM CDT
Civil Twilight 7:16 AM CDT 7:10 PM CDT
Nautical Twilight 6:47 AM CDT 7:39 PM CDT
Astronomical Twilight 6:18 AM CDT 8:07 PM CDT
Moon 9:17 AM CDT 8:13 PM CDT
Length Of Visible Light 11h 54m
Διάρκεια ημέρας
11h 03m
Tomorrow will be 1m 51s shorter.
Μηνίσκος, 4% of the Moon is Illuminated
Σήμερα
Μηνίσκος
Oct 30
Πρώτο τέταρτο
Nov 6
Πανσέληνος
Nov 14
Τελευταίο τέταρτο
Nov 22
New

Today's Extremes

State Highs State Lows

Community

WunderPhotos

Upload Photos

1,764,954 photos uploaded!

Nearby

Air Quality

  Air Quality AQ Index Pollutant
Yesterday Μέτρια
PM2.5
Yesterday Μέτρια
OZONE
Current Μέτρια
PM2.5
Current Καλή
OZONE
Σάββατο Μέτρια
OZONE
Σάββατο Καλή
PM10
Κυριακή Μέτρια
OZONE
Κυριακή Καλή
PM10
Δευτέρα Καλή
OZONE
Δευτέρα Καλή
PM10
Τρίτη Καλή
OZONE
Τρίτη Καλή
PM10

Snow Depth

Station Depth Elevation
No new snow has been reported.

Earthquake Activity

City Distance Mag. Time & Date
No recent earthquake activity has been reported nearby.
Minimum magnitude displayed is 2.5.

Coastal Water Temperatures

Τοποθεσία Θερμοκρασία
No Stations Reporting

Nearby Weather Stations